createdAt,value
2022-10-05T00:02:20.613Z,9.09
2022-10-05T00:06:29.576Z,9.08
2022-10-05T00:10:37.561Z,9.04
2022-10-05T00:14:49.237Z,9.03
2022-10-05T00:18:57.322Z,9.04
2022-10-05T00:23:09.740Z,9.02
2022-10-05T00:27:21.375Z,9.01
2022-10-05T00:31:33.952Z,8.97
2022-10-05T00:35:41.768Z,8.96
2022-10-05T00:39:50.065Z,8.97
2022-10-05T00:44:21.125Z,8.97
2022-10-05T00:48:37.278Z,8.96
2022-10-05T00:52:51.789Z,8.93
2022-10-05T00:57:15.055Z,8.92
2022-10-05T01:01:29.127Z,8.92
2022-10-05T01:05:56.463Z,8.91
2022-10-05T01:10:10.640Z,8.85
2022-10-05T01:14:22.195Z,8.76
2022-10-05T01:18:39.008Z,8.66
2022-10-05T01:23:09.400Z,8.61
2022-10-05T01:27:35.684Z,8.60
2022-10-05T01:31:46.870Z,8.57
2022-10-05T01:36:01.770Z,8.54
2022-10-05T01:40:13.096Z,8.46
2022-10-05T01:44:24.260Z,8.45
2022-10-05T01:48:42.004Z,8.49
2022-10-05T01:52:57.117Z,8.51
2022-10-05T01:57:10.870Z,8.52
2022-10-05T02:01:26.849Z,8.51
2022-10-05T02:05:39.562Z,8.53
2022-10-05T02:09:50.153Z,8.56
2022-10-05T02:14:00.806Z,8.59
2022-10-05T02:18:13.990Z,8.59
2022-10-05T02:22:26.497Z,8.58
2022-10-05T02:26:35.122Z,8.62
2022-10-05T02:30:46.648Z,8.66
2022-10-05T02:34:54.548Z,8.69
2022-10-05T02:39:08.367Z,8.70
2022-10-05T02:43:23.727Z,8.69
2022-10-05T02:47:35.049Z,8.67
2022-10-05T02:51:50.946Z,8.73
2022-10-05T02:56:05.516Z,8.80
2022-10-05T03:00:17.205Z,8.86
2022-10-05T03:04:34.543Z,8.88
2022-10-05T03:08:48.523Z,8.88
2022-10-05T03:13:01.082Z,8.93
2022-10-05T03:17:17.398Z,8.99
2022-10-05T03:21:34.030Z,9.04
2022-10-05T03:25:55.934Z,9.05
2022-10-05T03:30:07.379Z,9.06
2022-10-05T03:34:20.101Z,9.11
2022-10-05T03:38:32.308Z,9.17
2022-10-05T03:42:53.751Z,9.21
2022-10-05T03:47:13.242Z,9.24
2022-10-05T03:51:27.066Z,9.24
2022-10-05T03:55:41.196Z,9.28
2022-10-05T03:59:56.719Z,9.34
2022-10-05T04:04:06.601Z,9.36
2022-10-05T04:08:18.578Z,9.38
2022-10-05T04:12:27.972Z,9.38
2022-10-05T04:16:40.392Z,9.41
2022-10-05T04:20:52.309Z,9.44
2022-10-05T04:25:05.015Z,9.44
2022-10-05T04:29:17.922Z,9.42
2022-10-05T04:33:25.816Z,9.39
2022-10-05T04:37:39.022Z,9.41
2022-10-05T04:42:02.302Z,9.44
2022-10-05T04:46:23.597Z,9.48
2022-10-05T04:50:45.914Z,9.48
2022-10-05T04:55:10.742Z,9.47
2022-10-05T04:59:40.514Z,9.49
2022-10-05T05:04:06.983Z,9.56
2022-10-05T05:08:24.575Z,9.59
2022-10-05T05:12:41.988Z,9.61
2022-10-05T05:16:56.940Z,9.63
2022-10-05T05:21:14.670Z,9.68
2022-10-05T05:25:39.720Z,9.76
2022-10-05T05:29:59.021Z,9.80
2022-10-05T05:34:17.117Z,9.81
2022-10-05T05:38:31.957Z,9.80
2022-10-05T05:42:44.088Z,9.82
2022-10-05T05:47:04.101Z,9.86
2022-10-05T05:51:18.006Z,9.89
2022-10-05T05:55:30.545Z,9.88
2022-10-05T05:59:49.119Z,9.84
2022-10-05T06:04:01.505Z,9.84
2022-10-05T06:08:17.299Z,9.89
2022-10-05T06:12:26.925Z,9.93
2022-10-05T06:16:39.040Z,10.00
2022-10-05T06:20:51.322Z,10.09
2022-10-05T06:25:08.230Z,10.23
2022-10-05T06:29:20.679Z,10.42
2022-10-05T06:33:45.877Z,10.58
2022-10-05T06:38:02.768Z,10.75
2022-10-05T06:42:28.788Z,10.95
2022-10-05T06:46:40.883Z,11.19
2022-10-05T06:50:52.136Z,11.44
2022-10-05T06:55:14.199Z,11.68
2022-10-05T06:59:28.252Z,11.87
2022-10-05T07:03:45.625Z,12.03
2022-10-05T07:07:56.431Z,12.15
2022-10-05T07:12:17.450Z,12.32
2022-10-05T07:16:31.968Z,12.49
2022-10-05T07:20:49.244Z,12.68
2022-10-05T07:25:06.093Z,12.85
2022-10-05T07:29:33.095Z,13.02
2022-10-05T07:33:44.889Z,13.20
2022-10-05T07:37:58.097Z,13.37
2022-10-05T07:42:25.234Z,13.54
2022-10-05T07:46:36.808Z,13.72
2022-10-05T07:50:51.153Z,13.84
2022-10-05T07:55:04.039Z,13.96
2022-10-05T07:59:17.470Z,14.08
2022-10-05T08:03:34.579Z,14.22
2022-10-05T08:07:42.661Z,14.38
2022-10-05T08:11:54.899Z,14.55
2022-10-05T08:16:05.581Z,14.75
2022-10-05T08:20:28.039Z,14.94
2022-10-05T08:24:46.262Z,15.15
2022-10-05T08:29:09.131Z,15.32
2022-10-05T08:33:20.353Z,15.49
2022-10-05T08:37:30.809Z,15.61
2022-10-05T08:42:06.190Z,15.69
2022-10-05T08:46:40.523Z,15.78
2022-10-05T08:51:09.411Z,15.90
2022-10-05T08:55:30.041Z,16.06
2022-10-05T08:59:58.636Z,16.20
2022-10-05T09:04:30.326Z,16.33
2022-10-05T09:08:55.525Z,16.45
2022-10-05T09:13:21.023Z,16.57
2022-10-05T09:17:50.124Z,16.67
2022-10-05T09:22:02.834Z,16.75
2022-10-05T09:26:25.118Z,16.84
2022-10-05T09:30:48.792Z,16.92
2022-10-05T09:35:07.497Z,16.97
2022-10-05T09:40:01.559Z,17.03
2022-10-05T09:44:47.481Z,17.09
2022-10-05T09:49:36.723Z,17.16
2022-10-05T09:54:12.084Z,17.24
2022-10-05T09:58:51.904Z,17.30
2022-10-05T10:03:24.613Z,17.34
2022-10-05T10:07:56.146Z,17.41
2022-10-05T10:12:28.854Z,17.50
2022-10-05T10:17:08.878Z,17.58
2022-10-05T10:21:35.620Z,17.65
2022-10-05T10:26:16.787Z,17.74
2022-10-05T10:30:52.179Z,17.89
2022-10-05T10:35:19.624Z,17.97
2022-10-05T10:39:40.915Z,18.04
2022-10-05T10:44:16.820Z,18.10
2022-10-05T10:49:00.894Z,18.16
2022-10-05T10:53:29.760Z,18.22
2022-10-05T10:57:48.514Z,18.24
2022-10-05T11:02:09.549Z,18.21
2022-10-05T11:06:28.777Z,18.22
2022-10-05T11:11:08.336Z,18.28
2022-10-05T11:15:35.303Z,18.26
2022-10-05T11:20:04.188Z,18.31
2022-10-05T11:24:40.253Z,18.35
2022-10-05T11:29:19.035Z,18.43
2022-10-05T11:33:51.054Z,18.58
2022-10-05T11:38:52.356Z,18.73
2022-10-05T11:43:18.128Z,18.81
2022-10-05T11:47:28.087Z,18.93
2022-10-05T11:51:43.211Z,19.06
2022-10-05T11:56:05.295Z,19.17
2022-10-05T12:00:22.366Z,19.30
2022-10-05T12:04:37.234Z,19.48
2022-10-05T12:08:52.668Z,19.63
2022-10-05T12:13:11.251Z,19.74
2022-10-05T12:17:23.908Z,19.90
2022-10-05T12:21:41.678Z,20.00
2022-10-05T12:25:52.783Z,20.07
2022-10-05T12:30:06.457Z,20.15
2022-10-05T12:34:23.345Z,20.23
2022-10-05T12:38:34.979Z,20.31
2022-10-05T12:42:50.753Z,20.34
2022-10-05T12:47:06.228Z,20.36
2022-10-05T12:51:20.865Z,20.41
2022-10-05T12:55:33.979Z,20.44
2022-10-05T12:59:46.539Z,20.45
2022-10-05T13:03:59.479Z,20.46
2022-10-05T13:08:18.009Z,20.46
2022-10-05T13:12:35.687Z,20.43
2022-10-05T13:16:48.343Z,20.50
2022-10-05T13:21:04.991Z,20.59
2022-10-05T13:25:22.363Z,20.65
2022-10-05T13:29:34.468Z,20.72
2022-10-05T13:34:02.708Z,20.78
2022-10-05T13:38:27.521Z,20.81
2022-10-05T13:42:39.268Z,20.79
2022-10-05T13:46:51.507Z,20.74
2022-10-05T13:51:06.800Z,20.71
2022-10-05T13:55:22.618Z,20.78
2022-10-05T13:59:34.730Z,20.89
2022-10-05T14:03:42.866Z,20.95
2022-10-05T14:07:55.727Z,21.02
2022-10-05T14:12:25.522Z,21.09
2022-10-05T14:16:35.748Z,21.15
2022-10-05T14:21:00.959Z,21.17
2022-10-05T14:25:19.489Z,21.17
2022-10-05T14:29:36.706Z,21.14
2022-10-05T14:33:44.836Z,21.18
2022-10-05T14:37:58.288Z,21.22
2022-10-05T14:42:20.426Z,21.26
2022-10-05T14:46:30.630Z,21.27
2022-10-05T14:50:53.109Z,21.26
2022-10-05T14:55:02.717Z,21.24
2022-10-05T14:59:26.051Z,21.16
2022-10-05T15:03:48.932Z,21.00
2022-10-05T15:08:00.030Z,20.85
2022-10-05T15:12:07.905Z,20.73
2022-10-05T15:16:22.671Z,20.59
2022-10-05T15:20:35.538Z,20.40
2022-10-05T15:24:47.494Z,20.22
2022-10-05T15:29:00.671Z,20.04
2022-10-05T15:33:19.927Z,19.89
2022-10-05T15:37:32.787Z,19.73
2022-10-05T15:41:55.494Z,19.57
2022-10-05T15:46:10.663Z,19.42
2022-10-05T15:50:25.426Z,19.26
2022-10-05T15:55:06.206Z,19.10
2022-10-05T15:59:19.794Z,18.93
2022-10-05T16:03:31.934Z,18.76
2022-10-05T16:08:12.568Z,18.60
2022-10-05T16:12:27.136Z,18.45
2022-10-05T16:16:39.742Z,18.32
2022-10-05T16:20:54.728Z,18.18
2022-10-05T16:25:11.371Z,18.03
2022-10-05T16:29:25.036Z,17.90
2022-10-05T16:33:45.964Z,17.78
2022-10-05T16:37:59.774Z,17.63
2022-10-05T16:42:16.269Z,17.50
2022-10-05T16:46:31.203Z,17.37
2022-10-05T16:50:49.964Z,17.24
2022-10-05T16:55:02.912Z,17.10
2022-10-05T16:59:26.596Z,17.00
2022-10-05T17:03:47.447Z,16.92
2022-10-05T17:08:07.557Z,16.84
2022-10-05T17:12:29.574Z,16.75
2022-10-05T17:16:49.578Z,16.67
2022-10-05T17:21:08.086Z,16.58
2022-10-05T17:25:22.584Z,16.51
2022-10-05T17:29:33.273Z,16.44
2022-10-05T17:34:21.196Z,16.36
2022-10-05T17:38:48.753Z,16.26
2022-10-05T17:43:02.530Z,16.16
2022-10-05T17:47:16.411Z,16.10
2022-10-05T17:52:21.921Z,16.03
2022-10-05T17:56:30.826Z,15.98
2022-10-05T18:00:43.868Z,15.95
2022-10-05T18:05:07.211Z,15.94
2022-10-05T18:09:37.883Z,15.92
2022-10-05T18:13:50.406Z,15.90
2022-10-05T18:18:19.137Z,15.89
2022-10-05T18:22:31.282Z,15.88
2022-10-05T18:26:44.195Z,15.87
2022-10-05T18:31:04.830Z,15.87
2022-10-05T18:35:16.632Z,15.85
2022-10-05T18:39:39.046Z,15.84
2022-10-05T18:43:51.197Z,15.84
2022-10-05T18:48:11.497Z,15.83
2022-10-05T18:52:25.834Z,15.85
2022-10-05T18:56:37.932Z,15.84
2022-10-05T19:00:59.001Z,15.84
2022-10-05T19:05:42.527Z,15.87
2022-10-05T19:09:58.654Z,15.93
2022-10-05T19:14:15.375Z,15.95
2022-10-05T19:18:39.911Z,15.96
2022-10-05T19:22:57.450Z,15.96
2022-10-05T19:27:10.407Z,15.96
2022-10-05T19:31:27.301Z,15.93
2022-10-05T19:35:45.248Z,15.90
2022-10-05T19:39:57.805Z,15.88
2022-10-05T19:44:18.831Z,15.84
2022-10-05T19:48:33.424Z,15.81
2022-10-05T19:52:49.720Z,15.78
2022-10-05T19:56:58.460Z,15.77
2022-10-05T20:01:08.000Z,15.75
2022-10-05T20:05:17.192Z,15.75
2022-10-05T20:09:24.950Z,15.74
2022-10-05T20:13:35.360Z,15.73
2022-10-05T20:18:01.486Z,15.73
2022-10-05T20:22:29.441Z,15.72
2022-10-05T20:27:16.083Z,15.77
2022-10-05T20:31:23.995Z,15.82
2022-10-05T20:35:32.763Z,15.83
2022-10-05T20:39:41.862Z,15.83
2022-10-05T20:43:49.169Z,15.82
2022-10-05T20:47:56.290Z,15.80
2022-10-05T20:52:04.972Z,15.78
2022-10-05T20:56:12.573Z,15.75
2022-10-05T21:00:20.520Z,15.72
2022-10-05T21:04:36.096Z,15.67
2022-10-05T21:08:51.480Z,15.62
2022-10-05T21:13:02.893Z,15.57
2022-10-05T21:17:12.726Z,15.56
2022-10-05T21:21:21.971Z,15.56
2022-10-05T21:25:29.743Z,15.56
2022-10-05T21:29:41.215Z,15.52
2022-10-05T21:33:48.784Z,15.46
2022-10-05T21:37:56.278Z,15.40
2022-10-05T21:42:03.923Z,15.35
2022-10-05T21:46:12.338Z,15.29
2022-10-05T21:50:21.560Z,15.22
2022-10-05T21:54:30.886Z,15.15
2022-10-05T21:58:38.410Z,15.12
2022-10-05T22:02:46.251Z,15.11
2022-10-05T22:06:54.356Z,15.07
2022-10-05T22:11:02.902Z,15.03
2022-10-05T22:15:11.847Z,15.03
2022-10-05T22:19:22.944Z,15.06
2022-10-05T22:23:30.457Z,15.09
2022-10-05T22:27:38.528Z,15.13
2022-10-05T22:31:49.180Z,15.21
2022-10-05T22:35:57.897Z,15.30
2022-10-05T22:40:05.518Z,15.35
2022-10-05T22:44:13.663Z,15.38
2022-10-05T22:48:21.406Z,15.41
2022-10-05T22:52:29.618Z,15.39
2022-10-05T22:56:38.427Z,15.37
2022-10-05T23:00:57.986Z,15.35
2022-10-05T23:05:07.199Z,15.38
2022-10-05T23:09:14.711Z,15.42
2022-10-05T23:13:22.752Z,15.46
2022-10-05T23:17:35.905Z,15.47
2022-10-05T23:21:43.843Z,15.46
2022-10-05T23:25:51.669Z,15.45
2022-10-05T23:29:59.391Z,15.41
2022-10-05T23:34:06.903Z,15.37
2022-10-05T23:38:14.831Z,15.36
2022-10-05T23:42:22.489Z,15.37
2022-10-05T23:46:32.031Z,15.37
2022-10-05T23:50:40.342Z,15.34
2022-10-05T23:54:48.398Z,15.28
2022-10-05T23:58:56.450Z,15.21
